Latest Coastal Weather Observations for Coolangatta

IDQ60701

Issued at 1:22 am EST Friday 3 February 2023 (issued every 10 minutes, with the page automatically refreshed every 10 minutes)

About coastal observations | Map of coastal stations | Coastal observations for QLD | Marine services | Other Formats
Station Details ID: 040717 Name: COOLANGATTA Lat: -28.17 Lon: 153.51 Height: 4.0 m
Data from the previous 72 hours. | See also: Recent months at Coolangatta

Observations at Coolangatta are collected in the Queensland time zone, which does not include daylight savings during the summer period. Therefore 'Rain since 9am' totals and other values are based on the Queensland time zone.

Date/Time
EST
Wind Sea
Height
m
Swell Vis
km
Cloud Weather Temp
°C
Press
MSL
hPa
Rain since
9am
mm
Dir  Spd
kts
Gust
kts
Height
m
Period
s
Dir
03/01:00am NW 4 6 - - - - 10 Partly cloudy - 23.4 997.0 0.0
03/12:30am NW 4 5 - - - - 10 Partly cloudy - 23.4 997.5 0.0
03/12:00am NNW 4 4 - - - - 10 Mostly clear - 23.7 997.8 0.0
 
Date/Time
EST
Wind Sea
Height
m
Swell Vis
km
Cloud Weather Temp
°C
Press
MSL
hPa
Rain since
9am
mm
Dir  Spd
kts
Gust
kts
Height
m
Period
s
Dir
02/11:30pm NNW 4 5 - - - - 10 Partly cloudy - 24.2 998.3 0.0
02/11:00pm NNW 4 5 - - - - 10 - - 24.2 998.7 0.0
02/10:30pm N 4 5 - - - - 10 - - 24.7 998.7 0.0
02/10:00pm N 6 7 - - - - 10 Partly cloudy - 25.6 999.1 0.0
02/09:30pm N 7 8 - - - - 10 Partly cloudy - 25.8 999.5 0.0
02/09:00pm N 7 9 - - - - 10 Cloudy - 26.1 999.5 0.0
02/08:30pm NNE 8 11 - - - - 10 Partly cloudy - 26.2 999.6 0.0
02/08:00pm NNE 7 9 - - - - 10 Partly cloudy - 26.4 999.3 0.0
02/07:30pm NNE 7 9 - - - - 10 Partly cloudy - 26.4 998.9 0.0
02/07:03pm NE 8 10 - - - - 10 Partly cloudy - 26.4 998.7 0.0
02/07:00pm NE 8 10 - - - - 10 Partly cloudy - 26.5 998.6 0.0
02/06:51pm NNE 6 9 - - - - 10 Partly cloudy - 26.4 998.8 0.0
02/06:30pm NE 8 10 - - - - 10 Partly cloudy - 26.6 998.5 0.0
02/06:00pm NE 8 11 - - - - 10 Cloudy - 26.7 998.5 0.0
02/05:30pm ENE 8 11 - - - - 10 Partly cloudy - 26.7 998.0 0.0
02/05:00pm NE 7 9 - - - - 10 Partly cloudy - 26.5 998.1 0.0
02/04:30pm ENE 7 9 - - - - 10 Partly cloudy - 26.7 998.1 0.0
02/04:00pm ENE 7 11 - - - - 10 Partly cloudy - 26.6 998.4 0.0
02/03:30pm ENE 9 13 - - - - 10 Partly cloudy - 27.2 998.1 0.0
02/03:00pm ENE 10 12 - - - - 10 Partly cloudy - 27.7 998.3 0.0
02/02:30pm ENE 9 12 - - - - 10 Partly cloudy - 27.7 998.6 0.0
02/02:00pm ENE 10 13 - - - - 10 Partly cloudy - 27.7 999.2 0.0
02/01:30pm ENE 9 13 - - - - 10 - - 28.3 999.5 0.0
02/01:00pm NE 11 13 - - - - 10 Partly cloudy - 27.6 999.9 0.0
02/12:30pm ENE 9 12 - - - - 10 Partly cloudy - 28.3 1000.5 0.0
02/12:00pm ENE 9 11 - - - - 10 Cloudy - 27.7 1000.9 0.0
02/11:30am NE 9 11 - - - - 10 Partly cloudy - 27.6 1001.1 0.0
02/11:00am NE 9 12 - - - - 10 Cloudy - 28.2 1001.1 0.0
02/10:30am NE 10 13 - - - - 10 Partly cloudy - 28.3 1001.5 0.0
02/10:00am NE 9 14 - - - - 10 Partly cloudy - 28.2 1001.7 0.0
02/09:30am NE 8 12 - - - - 10 Cloudy - 28.2 1001.8 0.0
02/09:00am E 5 11 - - - - 10 Cloudy - 28.7 1001.9 0.0
02/08:30am SSE 3 6 - - - - 10 - - 26.9 1002.1 0.0
02/08:00am SSE 4 5 - - - - 10 - - 26.3 1002.2 0.0
02/07:30am S 6 8 - - - - 10 - - 26.6 1002.1 0.0
02/07:00am S 5 7 - - - - 10 Partly cloudy - 25.6 1001.9 0.0
02/06:30am SW 5 7 - - - - 10 Partly cloudy - 24.3 1001.9 0.0
02/06:00am SSE 3 4 - - - - 10 Cloudy - 24.0 1001.7 0.0
02/05:30am SSE 4 6 - - - - 10 Partly cloudy - 23.8 1001.4 0.0
02/05:00am SSE 2 4 - - - - 10 Partly cloudy - 23.7 1001.2 0.0
02/04:30am SSE 4 5 - - - - 10 Partly cloudy - 23.9 1001.2 0.0
02/04:00am SE 4 5 - - - - 10 Partly cloudy - 24.3 1001.1 0.0
02/03:30am SE 4 5 - - - - 10 Partly cloudy - 24.2 1000.9 0.0
02/03:00am SE 3 4 - - - - 10 Cloudy - 24.4 1001.2 0.0
02/02:30am ESE 3 5 - - - - 10 Partly cloudy - 24.6 1001.2 0.0
02/02:00am ESE 5 7 - - - - 10 Partly cloudy - 25.1 1001.5 0.0
02/01:30am ESE 6 7 - - - - 10 Cloudy - 25.3 1001.8 0.0
02/01:00am E 5 7 - - - - 10 Partly cloudy - 25.4 1002.2 0.0
02/12:30am ESE 5 7 - - - - 10 Partly cloudy - 25.5 1002.6 0.0
02/12:00am ESE 5 7 - - - - 10 Cloudy - 25.4 1002.8 0.0
 
Date/Time
EST
Wind Sea
Height
m
Swell Vis
km
Cloud Weather Temp
°C
Press
MSL
hPa
Rain since
9am
mm
Dir  Spd
kts
Gust
kts
Height
m
Period
s
Dir
01/11:30pm ESE 4 5 - - - - 10 Partly cloudy - 25.4 1003.2 0.0
01/11:00pm E 5 7 - - - - 10 Partly cloudy - 25.6 1003.3 0.0
01/10:30pm ESE 5 6 - - - - 10 Partly cloudy - 25.6 1003.5 0.0
01/10:00pm ESE 7 8 - - - - 10 Partly cloudy - 25.6 1003.4 0.0
01/09:30pm ESE 6 9 - - - - 10 Partly cloudy - 25.6 1003.2 0.0
01/09:00pm ESE 6 8 - - - - 10 Cloudy - 25.9 1003.2 0.0
01/08:30pm ESE 7 9 - - - - 10 Partly cloudy - 26.1 1002.9 0.0
01/08:00pm ENE 7 9 - - - - 10 Partly cloudy - 26.2 1002.5 0.0
01/07:30pm E 8 10 - - - - 10 Partly cloudy - 26.2 1002.0 0.0
01/07:00pm ESE 7 8 - - - - 10 Partly cloudy - 26.1 1001.7 0.0
01/06:30pm ESE 6 8 - - - - 10 Partly cloudy - 26.2 1001.3 0.0
01/06:00pm ESE 8 11 - - - - 10 Cloudy - 26.4 1001.1 0.0
01/05:30pm ESE 10 12 - - - - 10 Partly cloudy - 26.7 1000.5 0.0
01/05:00pm ESE 11 14 - - - - 10 Partly cloudy - 27.6 1000.4 0.0
01/04:30pm ESE 11 14 - - - - 10 Partly cloudy - 27.5 1000.3 0.0
01/04:00pm ESE 13 16 - - - - 10 Partly cloudy - 29.0 1000.3 0.0
01/03:30pm ESE 12 15 - - - - 10 Partly cloudy - 28.8 1000.2 0.0
01/03:00pm ESE 9 13 - - - - 10 Cloudy - 27.5 1000.3 0.0
01/02:30pm ESE 13 21 - - - - 10 Partly cloudy - 27.2 1000.5 0.0
01/02:00pm ESE 13 17 - - - - 10 Cloudy - 28.1 1000.6 0.0
01/01:30pm E 13 18 - - - - 10 Partly cloudy - 29.3 1000.9 0.0
01/01:00pm ESE 13 17 - - - - 10 Partly cloudy - 29.4 1001.0 0.0
01/12:30pm ESE 14 18 - - - - 10 Partly cloudy - 28.9 1001.4 0.0
01/12:00pm ENE 11 14 - - - - 10 Mostly cloudy - 28.2 1001.1 0.0
01/11:30am NE 9 11 - - - - 10 Partly cloudy - 29.2 1001.1 0.0
01/11:00am NNE 8 10 - - - - 10 - - 28.7 1001.3 0.0
01/10:30am N 7 8 - - - - 10 Partly cloudy - 28.5 1001.4 0.0
01/10:00am NNE 9 12 - - - - 10 - - 27.8 1001.6 0.0
01/09:30am S 4 7 - - - - 10 - - 28.2 1001.8 0.0
01/09:00am S 2 4 - - - - 10 Mostly clear - 27.4 1001.7 20.0
01/08:52am SSW 3 6 - - - - 10 Partly cloudy - 27.0 1001.7 20.0
01/08:30am SW 3 5 - - - - 10 Partly cloudy - 26.5 1001.7 20.0
01/08:09am CALM 0 3 - - - - 10 Partly cloudy - 26.2 1001.8 20.0
01/08:00am SSW 3 6 - - - - 10 Partly cloudy - 25.9 1001.9 20.0
01/07:30am SSW 2 4 - - - - 10 Partly cloudy - 24.8 1001.8 20.0
01/07:00am SSW 4 5 - - - - 10 Cloudy - 24.2 1001.9 20.0
01/06:55am SSW 4 6 - - - - 10 Partly cloudy - 23.9 1001.9 20.0
01/06:30am CALM 0 0 - - - - 6 Partly cloudy - 23.7 1001.6 20.0
01/06:00am SSW 1 3 - - - - 6 Cloudy - 23.5 1001.4 20.0
01/05:59am SSW 1 3 - - - - 6 Partly cloudy - 23.6 1001.4 20.0
01/05:30am CALM 0 0 - - - - 10 Partly cloudy - 23.2 1001.2 20.0
01/05:13am CALM 0 0 - - - - 10 Partly cloudy - 23.2 1001.0 20.0
01/05:00am CALM 0 0 - - - - 10 Partly cloudy - 23.2 1000.9 20.0
01/04:30am SSW 3 5 - - - - 10 Partly cloudy - 23.2 1000.7 20.0
01/04:00am S 1 4 - - - - 10 Cloudy - 23.0 1000.5 20.0
01/03:38am CALM 0 0 - - - - 10 Partly cloudy - 23.0 1000.5 20.0
01/03:30am CALM 0 0 - - - - 10 Partly cloudy - 22.8 1000.4 20.0
01/03:00am CALM 0 0 - - - - 10 Cloudy - 22.8 1000.2 20.0
01/02:30am CALM 0 0 - - - - 10 Partly cloudy - 22.8 1000.3 20.0
01/02:00am CALM 0 0 - - - - 10 Cloudy - 23.1 1000.6 20.0
01/01:30am S 3 4 - - - - 10 Partly cloudy - 23.0 1000.8 20.0
01/01:00am SSE 5 7 - - - - 10 Partly cloudy - 22.9 1001.0 19.8
01/12:30am CALM 0 0 - - - - 10 Partly cloudy - 23.0 1001.6 19.4
01/12:00am S 3 5 - - - - 10 Cloudy Rain 22.9 1001.9 19.2
 
Date/Time
EST
Wind Sea
Height
m
Swell Vis
km
Cloud Weather Temp
°C
Press
MSL
hPa
Rain since
9am
mm
Dir  Spd
kts
Gust
kts
Height
m
Period
s
Dir
31/11:37pm SSE 4 6 - - - - 10 Partly cloudy - 22.9 1001.8 19.2
31/11:30pm S 5 7 - - - - 10 Partly cloudy - 22.9 1001.9 19.2
31/11:00pm SSE 7 9 - - - - 10 Partly cloudy - 23.0 1002.1 18.2
31/10:30pm SSE 7 10 - - - - 10 Cloudy - 23.0 1002.5 18.2
31/10:00pm SSE 5 7 - - - - 10 Partly cloudy - 23.6 1002.6 18.2
31/09:57pm SSE 5 7 - - - - 10 Partly cloudy - 23.6 1002.6 18.2
31/09:30pm S 5 7 - - - - 10 Partly cloudy - 23.9 1002.6 18.2
31/09:15pm SSW 7 9 - - - - 10 Partly cloudy - 24.0 1002.6 18.2
31/09:10pm WSW 7 10 - - - - 10 Partly cloudy - 24.1 1002.5 18.2
31/09:00pm WSW 9 18 - - - - 2 Cloudy Thunderstorm 24.1 1002.3 18.2
31/08:36pm SSE 6 8 - - - - 6 Partly cloudy - 24.7 1002.5 7.6
31/08:34pm SSE 6 8 - - - - 9 Partly cloudy - 24.7 1002.5 6.0
31/08:30pm SSE 5 7 - - - - 10 Partly cloudy - 24.7 1002.4 5.4
31/08:10pm S 8 11 - - - - 6 Partly cloudy - 24.8 1002.2 4.0
31/08:00pm S 10 13 - - - - 10 Partly cloudy - 24.9 1002.3 1.2
31/07:30pm CALM 0 0 - - - - - Partly cloudy - 24.6 1001.1 0.8
31/07:28pm CALM 0 0 - - - - 10 Partly cloudy - 24.7 1001.1 0.8
31/07:00pm WNW 5 6 - - - - 10 Cloudy - 24.4 1000.9 0.8
31/06:30pm NW 7 11 - - - - 10 Partly cloudy - 24.6 1000.9 0.8
31/06:04pm N 15 17 - - - - 9 Partly cloudy - 24.5 1000.9 0.8
31/06:00pm N 16 21 - - - - 10 Cloudy Thunderstorm 24.7 1000.9 0.8
31/05:59pm N 17 23 - - - - 9 Partly cloudy - 24.8 1000.8 0.8
31/05:41pm NNW 15 21 - - - - 3 Partly cloudy - 24.7 1000.6 0.6
31/05:35pm NNW 10 19 - - - - 10 Partly cloudy - 25.8 1000.6 0.0
31/05:30pm NNW 7 11 - - - - 10 Partly cloudy - 26.2 1000.5 0.0
31/05:00pm NNE 7 10 - - - - 10 Cloudy - 26.8 1000.1 0.0
31/04:30pm N 10 13 - - - - 10 Partly cloudy - 27.6 999.9 0.0
31/04:00pm N 11 15 - - - - 10 Partly cloudy - 27.5 1000.2 0.0
31/03:30pm N 11 14 - - - - 10 Partly cloudy - 28.0 1000.4 0.0
31/03:00pm NNE 11 15 - - - - 10 Mostly cloudy - 27.8 1000.7 0.0
31/02:30pm NNE 12 16 - - - - 10 Partly cloudy - 29.2 1001.1 0.0
31/02:00pm NNE 11 14 - - - - 10 Partly cloudy - 28.8 1001.5 0.0
31/01:30pm NNE 9 12 - - - - 10 Partly cloudy - 28.7 1002.0 0.0
31/01:00pm NNE 9 11 - - - - 10 Partly cloudy - 28.4 1002.7 0.0
31/12:30pm N 8 11 - - - - 10 Partly cloudy - 27.7 1003.0 0.0
31/12:00pm N 10 12 - - - - 10 Mostly clear - 28.7 1003.1 0.0
31/11:30am N 12 14 - - - - 10 Partly cloudy - 29.2 1003.5 0.0
31/11:00am NNW 12 16 - - - - 10 Partly cloudy - 28.8 1003.8 0.0
31/10:30am NNW 12 15 - - - - 10 Cloudy - 26.8 1004.3 0.0
31/10:00am NNW 12 17 - - - - 10 Cloudy - 25.5 1004.7 0.0
31/09:30am NNW 13 19 - - - - 10 Partly cloudy - 25.7 1005.1 0.0
31/09:00am NW 10 13 - - - - 10 Cloudy - 24.9 1005.4 5.8
31/08:30am NW 11 15 - - - - 10 Partly cloudy - 24.7 1005.4 5.8
31/08:00am NW 10 15 - - - - 10 Partly cloudy - 24.2 1005.8 5.8
31/07:30am NW 10 15 - - - - 10 Partly cloudy - 23.9 1005.7 5.8
31/07:00am NNW 9 14 - - - - - Partly cloudy - 23.5 1005.7 5.8
31/06:30am NW 8 13 - - - - 10 Cloudy - 23.1 1005.7 5.8
31/06:00am NW 9 12 - - - - 10 Cloudy Rain 22.5 1005.7 5.8
31/05:30am NW 10 14 - - - - 10 Partly cloudy - 22.4 1005.3 5.8
31/05:00am NW 10 15 - - - - 10 Partly cloudy - 23.0 1005.2 5.4
31/04:30am NW 8 13 - - - - 10 Partly cloudy - 22.8 1005.1 5.4
31/04:00am NNW 9 13 - - - - 10 Cloudy - 22.9 1005.3 5.4
31/03:30am NW 7 9 - - - - 10 Partly cloudy - 23.0 1005.5 5.0
31/03:00am WNW 7 9 - - - - 10 Cloudy Rain 23.1 1005.7 5.0
31/02:30am NW 7 9 - - - - 10 Partly cloudy - 23.1 1005.8 4.6
31/02:00am WNW 7 9 - - - - 10 Partly cloudy - 23.1 1006.5 4.6
31/01:30am WNW 7 9 - - - - 10 - - 23.2 1006.7 4.6

Other formats

Comma delimited format used in spreadsheet applications
http://www.bom.gov.au/fwo/IDQ60701/IDQ60701.94592.axf

JavaScript Object Notation format (JSON) in row-major order
http://www.bom.gov.au/fwo/IDQ60701/IDQ60701.94592.json

Data quality

Most of these data are generated automatically and are frequently updated. Quality checks on data are not normally performed. It is possible for incorrect values to appear. Refer to information at About Latest Weather Observations and please check the disclaimer before using these data.